sensor_id;sensor_type;location;lat;lon;timestamp;P1;durP1;ratioP1;P2;durP2;ratioP2
79747;SDS011;69232;47.488;19.268;2023-12-20T00:00:38;27.95;;;10.88;;
79747;SDS011;69232;47.488;19.268;2023-12-20T00:03:04;20.38;;;9.27;;
79747;SDS011;69232;47.488;19.268;2023-12-20T00:05:30;37.72;;;14.55;;
79747;SDS011;69232;47.488;19.268;2023-12-20T00:07:57;22.02;;;11.02;;
79747;SDS011;69232;47.488;19.268;2023-12-20T00:10:22;29.48;;;13.05;;
79747;SDS011;69232;47.488;19.268;2023-12-20T00:12:48;35.08;;;11.35;;
79747;SDS011;69232;47.488;19.268;2023-12-20T00:15:13;31.95;;;11.13;;
79747;SDS011;69232;47.488;19.268;2023-12-20T00:17:38;39.08;;;12.35;;
79747;SDS011;69232;47.488;19.268;2023-12-20T00:20:04;42.38;;;13.05;;
79747;SDS011;69232;47.488;19.268;2023-12-20T00:22:31;37.40;;;14.38;;
79747;SDS011;69232;47.488;19.268;2023-12-20T00:24:56;26.30;;;11.23;;
79747;SDS011;69232;47.488;19.268;2023-12-20T00:27:21;28.92;;;11.07;;
79747;SDS011;69232;47.488;19.268;2023-12-20T00:29:48;37.90;;;13.45;;
79747;SDS011;69232;47.488;19.268;2023-12-20T00:32:15;32.05;;;11.75;;
79747;SDS011;69232;47.488;19.268;2023-12-20T00:34:40;45.38;;;14.50;;
79747;SDS011;69232;47.488;19.268;2023-12-20T00:37:06;47.85;;;16.92;;
79747;SDS011;69232;47.488;19.268;2023-12-20T00:39:31;42.42;;;15.73;;
79747;SDS011;69232;47.488;19.268;2023-12-20T00:41:58;55.08;;;15.23;;
79747;SDS011;69232;47.488;19.268;2023-12-20T00:44:23;39.38;;;16.10;;
79747;SDS011;69232;47.488;19.268;2023-12-20T00:46:48;45.13;;;15.45;;
79747;SDS011;69232;47.488;19.268;2023-12-20T00:49:14;65.95;;;16.88;;
79747;SDS011;69232;47.488;19.268;2023-12-20T00:51:39;46.10;;;18.80;;
79747;SDS011;69232;47.488;19.268;2023-12-20T00:54:05;46.55;;;17.88;;
79747;SDS011;69232;47.488;19.268;2023-12-20T00:56:30;57.47;;;18.63;;
79747;SDS011;69232;47.488;19.268;2023-12-20T00:58:55;48.70;;;17.17;;
79747;SDS011;69232;47.488;19.268;2023-12-20T01:01:21;51.22;;;17.58;;
79747;SDS011;69232;47.488;19.268;2023-12-20T01:03:46;41.35;;;15.13;;
79747;SDS011;69232;47.488;19.268;2023-12-20T01:06:12;59.65;;;17.25;;
79747;SDS011;69232;47.488;19.268;2023-12-20T01:08:37;40.35;;;15.05;;
79747;SDS011;69232;47.488;19.268;2023-12-20T01:11:06;58.97;;;17.63;;
79747;SDS011;69232;47.488;19.268;2023-12-20T01:13:31;48.67;;;17.60;;
79747;SDS011;69232;47.488;19.268;2023-12-20T01:15:56;41.05;;;15.55;;
79747;SDS011;69232;47.488;19.268;2023-12-20T01:18:22;47.35;;;14.60;;
79747;SDS011;69232;47.488;19.268;2023-12-20T01:20:47;60.05;;;17.58;;
79747;SDS011;69232;47.488;19.268;2023-12-20T01:23:12;38.80;;;15.35;;
79747;SDS011;69232;47.488;19.268;2023-12-20T01:25:38;57.67;;;17.38;;
79747;SDS011;69232;47.488;19.268;2023-12-20T01:28:04;55.78;;;16.98;;
79747;SDS011;69232;47.488;19.268;2023-12-20T01:30:29;47.67;;;16.13;;
79747;SDS011;69232;47.488;19.268;2023-12-20T01:32:55;53.85;;;14.35;;
79747;SDS011;69232;47.488;19.268;2023-12-20T01:35:20;38.42;;;14.52;;
79747;SDS011;69232;47.488;19.268;2023-12-20T01:37:45;49.92;;;13.80;;
79747;SDS011;69232;47.488;19.268;2023-12-20T01:40:11;46.28;;;14.25;;
79747;SDS011;69232;47.488;19.268;2023-12-20T01:42:36;38.65;;;16.08;;
79747;SDS011;69232;47.488;19.268;2023-12-20T01:45:02;52.63;;;17.30;;
79747;SDS011;69232;47.488;19.268;2023-12-20T01:47:27;55.83;;;16.52;;
79747;SDS011;69232;47.488;19.268;2023-12-20T01:49:53;30.13;;;13.93;;
79747;SDS011;69232;47.488;19.268;2023-12-20T01:52:19;41.08;;;14.32;;
79747;SDS011;69232;47.488;19.268;2023-12-20T01:54:45;44.42;;;12.35;;
79747;SDS011;69232;47.488;19.268;2023-12-20T01:57:10;36.13;;;15.13;;
79747;SDS011;69232;47.488;19.268;2023-12-20T01:59:37;32.70;;;11.73;;
79747;SDS011;69232;47.488;19.268;2023-12-20T02:02:04;37.20;;;12.85;;
79747;SDS011;69232;47.488;19.268;2023-12-20T02:04:30;37.80;;;11.30;;
79747;SDS011;69232;47.488;19.268;2023-12-20T02:06:55;42.20;;;14.02;;
79747;SDS011;69232;47.488;19.268;2023-12-20T02:09:22;45.00;;;15.75;;
79747;SDS011;69232;47.488;19.268;2023-12-20T02:11:47;36.38;;;14.88;;
79747;SDS011;69232;47.488;19.268;2023-12-20T02:14:13;40.55;;;14.40;;
79747;SDS011;69232;47.488;19.268;2023-12-20T02:16:38;43.17;;;15.52;;
79747;SDS011;69232;47.488;19.268;2023-12-20T02:19:04;41.35;;;14.95;;
79747;SDS011;69232;47.488;19.268;2023-12-20T02:21:37;54.17;;;16.45;;
79747;SDS011;69232;47.488;19.268;2023-12-20T02:24:02;56.53;;;18.42;;
79747;SDS011;69232;47.488;19.268;2023-12-20T02:26:28;51.28;;;16.73;;
79747;SDS011;69232;47.488;19.268;2023-12-20T02:28:53;38.08;;;16.63;;
79747;SDS011;69232;47.488;19.268;2023-12-20T02:31:23;38.17;;;16.40;;
79747;SDS011;69232;47.488;19.268;2023-12-20T02:33:48;44.55;;;18.65;;
79747;SDS011;69232;47.488;19.268;2023-12-20T02:36:14;57.42;;;17.05;;
79747;SDS011;69232;47.488;19.268;2023-12-20T02:38:39;48.35;;;17.85;;
79747;SDS011;69232;47.488;19.268;2023-12-20T02:41:04;44.78;;;18.70;;
79747;SDS011;69232;47.488;19.268;2023-12-20T02:43:30;69.30;;;19.38;;
79747;SDS011;69232;47.488;19.268;2023-12-20T02:45:55;47.78;;;17.20;;
79747;SDS011;69232;47.488;19.268;2023-12-20T02:48:20;51.53;;;16.42;;
79747;SDS011;69232;47.488;19.268;2023-12-20T02:50:46;43.90;;;18.85;;
79747;SDS011;69232;47.488;19.268;2023-12-20T02:53:13;45.78;;;18.17;;
79747;SDS011;69232;47.488;19.268;2023-12-20T02:55:38;62.10;;;19.15;;
79747;SDS011;69232;47.488;19.268;2023-12-20T02:58:03;43.17;;;19.63;;
79747;SDS011;69232;47.488;19.268;2023-12-20T03:00:29;45.75;;;15.95;;
79747;SDS011;69232;47.488;19.268;2023-12-20T03:02:54;36.67;;;15.75;;
79747;SDS011;69232;47.488;19.268;2023-12-20T03:05:19;43.15;;;15.38;;
79747;SDS011;69232;47.488;19.268;2023-12-20T03:07:45;41.80;;;16.92;;
79747;SDS011;69232;47.488;19.268;2023-12-20T03:10:11;54.20;;;17.85;;
79747;SDS011;69232;47.488;19.268;2023-12-20T03:12:36;49.08;;;14.10;;
79747;SDS011;69232;47.488;19.268;2023-12-20T03:15:02;47.35;;;17.60;;
79747;SDS011;69232;47.488;19.268;2023-12-20T03:17:27;41.55;;;15.05;;
79747;SDS011;69232;47.488;19.268;2023-12-20T03:19:52;40.22;;;15.82;;
79747;SDS011;69232;47.488;19.268;2023-12-20T03:22:18;49.80;;;18.23;;
79747;SDS011;69232;47.488;19.268;2023-12-20T03:24:43;51.90;;;15.32;;
79747;SDS011;69232;47.488;19.268;2023-12-20T03:27:08;42.70;;;17.13;;
79747;SDS011;69232;47.488;19.268;2023-12-20T03:29:34;40.85;;;15.57;;
79747;SDS011;69232;47.488;19.268;2023-12-20T03:31:59;54.75;;;15.60;;
79747;SDS011;69232;47.488;19.268;2023-12-20T03:34:24;43.38;;;13.63;;
79747;SDS011;69232;47.488;19.268;2023-12-20T03:36:50;57.35;;;15.05;;
79747;SDS011;69232;47.488;19.268;2023-12-20T03:39:15;50.30;;;16.05;;
79747;SDS011;69232;47.488;19.268;2023-12-20T03:41:40;44.70;;;16.15;;
79747;SDS011;69232;47.488;19.268;2023-12-20T03:44:06;36.88;;;13.15;;
79747;SDS011;69232;47.488;19.268;2023-12-20T03:46:31;50.33;;;14.48;;
79747;SDS011;69232;47.488;19.268;2023-12-20T03:48:56;45.33;;;16.23;;
79747;SDS011;69232;47.488;19.268;2023-12-20T03:51:22;42.90;;;18.48;;
79747;SDS011;69232;47.488;19.268;2023-12-20T03:53:47;52.45;;;20.90;;
79747;SDS011;69232;47.488;19.268;2023-12-20T03:56:12;39.10;;;16.30;;
79747;SDS011;69232;47.488;19.268;2023-12-20T03:58:38;37.85;;;14.10;;
79747;SDS011;69232;47.488;19.268;2023-12-20T04:01:08;28.42;;;12.88;;
79747;SDS011;69232;47.488;19.268;2023-12-20T04:03:35;46.58;;;15.70;;
79747;SDS011;69232;47.488;19.268;2023-12-20T04:06:00;34.40;;;14.48;;
79747;SDS011;69232;47.488;19.268;2023-12-20T04:08:25;35.67;;;14.40;;
79747;SDS011;69232;47.488;19.268;2023-12-20T04:10:51;37.10;;;14.68;;
79747;SDS011;69232;47.488;19.268;2023-12-20T04:13:16;32.05;;;14.13;;
79747;SDS011;69232;47.488;19.268;2023-12-20T04:15:41;29.20;;;13.10;;
79747;SDS011;69232;47.488;19.268;2023-12-20T04:18:07;24.92;;;10.68;;
79747;SDS011;69232;47.488;19.268;2023-12-20T04:20:33;40.13;;;12.45;;
79747;SDS011;69232;47.488;19.268;2023-12-20T04:22:58;36.53;;;11.85;;
79747;SDS011;69232;47.488;19.268;2023-12-20T04:25:23;37.17;;;13.55;;
79747;SDS011;69232;47.488;19.268;2023-12-20T04:27:49;41.38;;;14.23;;
79747;SDS011;69232;47.488;19.268;2023-12-20T04:30:14;42.53;;;16.55;;
79747;SDS011;69232;47.488;19.268;2023-12-20T04:32:39;30.55;;;13.25;;
79747;SDS011;69232;47.488;19.268;2023-12-20T04:35:05;49.47;;;12.82;;
79747;SDS011;69232;47.488;19.268;2023-12-20T04:37:30;23.10;;;11.57;;
79747;SDS011;69232;47.488;19.268;2023-12-20T04:39:56;30.52;;;11.52;;
79747;SDS011;69232;47.488;19.268;2023-12-20T04:42:21;29.30;;;10.80;;
79747;SDS011;69232;47.488;19.268;2023-12-20T04:44:46;28.35;;;12.38;;
79747;SDS011;69232;47.488;19.268;2023-12-20T04:47:12;36.53;;;11.32;;
79747;SDS011;69232;47.488;19.268;2023-12-20T04:49:37;32.67;;;13.27;;
79747;SDS011;69232;47.488;19.268;2023-12-20T04:52:02;38.25;;;13.98;;
79747;SDS011;69232;47.488;19.268;2023-12-20T04:54:28;36.25;;;14.02;;
79747;SDS011;69232;47.488;19.268;2023-12-20T04:56:53;34.70;;;15.85;;
79747;SDS011;69232;47.488;19.268;2023-12-20T04:59:19;35.00;;;13.85;;
79747;SDS011;69232;47.488;19.268;2023-12-20T05:01:44;35.65;;;13.52;;
79747;SDS011;69232;47.488;19.268;2023-12-20T05:04:09;42.70;;;13.32;;
79747;SDS011;69232;47.488;19.268;2023-12-20T05:06:35;40.58;;;14.30;;
79747;SDS011;69232;47.488;19.268;2023-12-20T05:09:00;38.78;;;13.45;;
79747;SDS011;69232;47.488;19.268;2023-12-20T05:11:25;53.55;;;15.35;;
79747;SDS011;69232;47.488;19.268;2023-12-20T05:13:51;36.55;;;15.23;;
79747;SDS011;69232;47.488;19.268;2023-12-20T05:16:16;38.65;;;16.58;;
79747;SDS011;69232;47.488;19.268;2023-12-20T05:18:45;36.72;;;13.63;;
79747;SDS011;69232;47.488;19.268;2023-12-20T05:21:10;37.58;;;13.52;;
79747;SDS011;69232;47.488;19.268;2023-12-20T05:23:36;39.33;;;15.10;;
79747;SDS011;69232;47.488;19.268;2023-12-20T05:26:01;39.25;;;14.82;;
79747;SDS011;69232;47.488;19.268;2023-12-20T05:28:26;38.20;;;13.55;;
79747;SDS011;69232;47.488;19.268;2023-12-20T05:30:52;35.78;;;14.65;;
79747;SDS011;69232;47.488;19.268;2023-12-20T05:33:17;34.33;;;12.93;;
79747;SDS011;69232;47.488;19.268;2023-12-20T05:35:42;42.38;;;15.40;;
79747;SDS011;69232;47.488;19.268;2023-12-20T05:38:08;36.13;;;14.07;;
79747;SDS011;69232;47.488;19.268;2023-12-20T05:40:33;44.10;;;15.80;;
79747;SDS011;69232;47.488;19.268;2023-12-20T05:42:58;36.95;;;14.60;;
79747;SDS011;69232;47.488;19.268;2023-12-20T05:45:24;35.53;;;14.95;;
79747;SDS011;69232;47.488;19.268;2023-12-20T05:47:49;34.25;;;13.45;;
79747;SDS011;69232;47.488;19.268;2023-12-20T05:50:15;28.40;;;12.48;;
79747;SDS011;69232;47.488;19.268;2023-12-20T05:52:40;34.28;;;13.65;;
79747;SDS011;69232;47.488;19.268;2023-12-20T05:55:06;42.97;;;14.95;;
79747;SDS011;69232;47.488;19.268;2023-12-20T05:57:31;31.75;;;12.25;;
79747;SDS011;69232;47.488;19.268;2023-12-20T05:59:57;36.40;;;14.18;;
79747;SDS011;69232;47.488;19.268;2023-12-20T06:02:22;35.33;;;16.88;;
79747;SDS011;69232;47.488;19.268;2023-12-20T06:04:48;50.95;;;17.00;;
79747;SDS011;69232;47.488;19.268;2023-12-20T06:07:13;53.00;;;14.65;;
79747;SDS011;69232;47.488;19.268;2023-12-20T06:09:40;79.03;;;15.80;;
79747;SDS011;69232;47.488;19.268;2023-12-20T06:12:05;43.72;;;15.75;;
79747;SDS011;69232;47.488;19.268;2023-12-20T06:14:31;35.33;;;13.75;;
79747;SDS011;69232;47.488;19.268;2023-12-20T06:16:57;33.90;;;15.80;;
79747;SDS011;69232;47.488;19.268;2023-12-20T06:19:22;57.10;;;15.93;;
79747;SDS011;69232;47.488;19.268;2023-12-20T06:21:48;38.80;;;12.35;;
79747;SDS011;69232;47.488;19.268;2023-12-20T06:24:13;38.60;;;12.55;;
79747;SDS011;69232;47.488;19.268;2023-12-20T06:26:39;46.95;;;14.20;;
79747;SDS011;69232;47.488;19.268;2023-12-20T06:29:04;41.47;;;12.75;;
79747;SDS011;69232;47.488;19.268;2023-12-20T06:31:29;43.67;;;14.63;;
79747;SDS011;69232;47.488;19.268;2023-12-20T06:33:55;42.22;;;15.05;;
79747;SDS011;69232;47.488;19.268;2023-12-20T06:36:22;44.75;;;14.43;;
79747;SDS011;69232;47.488;19.268;2023-12-20T06:38:48;46.47;;;15.38;;
79747;SDS011;69232;47.488;19.268;2023-12-20T06:41:13;64.55;;;16.98;;
79747;SDS011;69232;47.488;19.268;2023-12-20T06:43:39;54.17;;;16.40;;
79747;SDS011;69232;47.488;19.268;2023-12-20T06:46:05;51.95;;;17.13;;
79747;SDS011;69232;47.488;19.268;2023-12-20T06:48:31;45.53;;;17.75;;
79747;SDS011;69232;47.488;19.268;2023-12-20T06:50:56;43.35;;;17.42;;
79747;SDS011;69232;47.488;19.268;2023-12-20T06:53:24;52.80;;;16.77;;
79747;SDS011;69232;47.488;19.268;2023-12-20T06:55:49;41.67;;;15.20;;
79747;SDS011;69232;47.488;19.268;2023-12-20T06:58:15;31.25;;;12.15;;
79747;SDS011;69232;47.488;19.268;2023-12-20T07:00:40;43.67;;;15.02;;
79747;SDS011;69232;47.488;19.268;2023-12-20T07:03:05;38.92;;;15.07;;
79747;SDS011;69232;47.488;19.268;2023-12-20T07:05:31;33.00;;;13.73;;
79747;SDS011;69232;47.488;19.268;2023-12-20T07:07:56;38.10;;;15.27;;
79747;SDS011;69232;47.488;19.268;2023-12-20T07:10:22;39.85;;;12.95;;
79747;SDS011;69232;47.488;19.268;2023-12-20T07:12:47;20.83;;;10.20;;
79747;SDS011;69232;47.488;19.268;2023-12-20T07:15:13;36.50;;;13.27;;
79747;SDS011;69232;47.488;19.268;2023-12-20T07:17:39;28.20;;;10.93;;
79747;SDS011;69232;47.488;19.268;2023-12-20T07:20:05;15.23;;;7.55;;
79747;SDS011;69232;47.488;19.268;2023-12-20T07:22:35;23.60;;;9.82;;
79747;SDS011;69232;47.488;19.268;2023-12-20T07:25:01;27.50;;;12.52;;
79747;SDS011;69232;47.488;19.268;2023-12-20T07:27:27;52.67;;;12.88;;
79747;SDS011;69232;47.488;19.268;2023-12-20T07:29:52;37.80;;;14.07;;
79747;SDS011;69232;47.488;19.268;2023-12-20T07:32:18;36.55;;;13.20;;
79747;SDS011;69232;47.488;19.268;2023-12-20T07:34:43;40.85;;;15.95;;
79747;SDS011;69232;47.488;19.268;2023-12-20T07:37:09;56.30;;;13.52;;
79747;SDS011;69232;47.488;19.268;2023-12-20T07:39:36;52.65;;;16.25;;
79747;SDS011;69232;47.488;19.268;2023-12-20T07:42:05;39.28;;;13.30;;
79747;SDS011;69232;47.488;19.268;2023-12-20T07:44:30;63.13;;;16.48;;
79747;SDS011;69232;47.488;19.268;2023-12-20T07:46:56;35.15;;;13.18;;
79747;SDS011;69232;47.488;19.268;2023-12-20T07:49:22;26.77;;;12.07;;
79747;SDS011;69232;47.488;19.268;2023-12-20T07:51:48;52.67;;;16.20;;
79747;SDS011;69232;47.488;19.268;2023-12-20T07:54:13;54.63;;;14.82;;
79747;SDS011;69232;47.488;19.268;2023-12-20T07:56:38;24.40;;;10.88;;
79747;SDS011;69232;47.488;19.268;2023-12-20T07:59:05;41.63;;;18.52;;
79747;SDS011;69232;47.488;19.268;2023-12-20T08:01:30;38.05;;;14.75;;
79747;SDS011;69232;47.488;19.268;2023-12-20T08:03:56;53.22;;;16.70;;
79747;SDS011;69232;47.488;19.268;2023-12-20T08:06:22;48.08;;;16.23;;
79747;SDS011;69232;47.488;19.268;2023-12-20T08:08:47;64.15;;;19.98;;
79747;SDS011;69232;47.488;19.268;2023-12-20T08:11:13;42.72;;;13.57;;
79747;SDS011;69232;47.488;19.268;2023-12-20T08:13:38;41.42;;;15.65;;
79747;SDS011;69232;47.488;19.268;2023-12-20T08:16:03;38.20;;;14.73;;
79747;SDS011;69232;47.488;19.268;2023-12-20T08:18:29;42.80;;;16.50;;
79747;SDS011;69232;47.488;19.268;2023-12-20T08:20:54;35.65;;;13.00;;
79747;SDS011;69232;47.488;19.268;2023-12-20T08:23:20;42.75;;;14.88;;
79747;SDS011;69232;47.488;19.268;2023-12-20T08:25:46;36.25;;;15.23;;
79747;SDS011;69232;47.488;19.268;2023-12-20T08:28:11;53.00;;;17.63;;
79747;SDS011;69232;47.488;19.268;2023-12-20T08:30:36;37.58;;;12.65;;
79747;SDS011;69232;47.488;19.268;2023-12-20T08:33:02;30.38;;;12.98;;
79747;SDS011;69232;47.488;19.268;2023-12-20T08:35:27;40.40;;;17.55;;
79747;SDS011;69232;47.488;19.268;2023-12-20T08:37:53;50.28;;;15.70;;
79747;SDS011;69232;47.488;19.268;2023-12-20T08:40:18;41.40;;;15.02;;
79747;SDS011;69232;47.488;19.268;2023-12-20T08:42:43;52.17;;;15.98;;
79747;SDS011;69232;47.488;19.268;2023-12-20T08:45:09;43.92;;;15.77;;
79747;SDS011;69232;47.488;19.268;2023-12-20T08:47:34;33.25;;;13.52;;
79747;SDS011;69232;47.488;19.268;2023-12-20T08:50:00;49.25;;;17.40;;
79747;SDS011;69232;47.488;19.268;2023-12-20T08:52:26;32.85;;;11.80;;
79747;SDS011;69232;47.488;19.268;2023-12-20T08:54:55;42.85;;;16.05;;
79747;SDS011;69232;47.488;19.268;2023-12-20T08:57:20;29.60;;;11.27;;
79747;SDS011;69232;47.488;19.268;2023-12-20T08:59:46;40.60;;;15.10;;
79747;SDS011;69232;47.488;19.268;2023-12-20T09:02:12;46.72;;;14.32;;
79747;SDS011;69232;47.488;19.268;2023-12-20T09:04:38;29.80;;;12.10;;
79747;SDS011;69232;47.488;19.268;2023-12-20T09:07:04;34.65;;;12.63;;
79747;SDS011;69232;47.488;19.268;2023-12-20T09:09:29;42.45;;;13.20;;
79747;SDS011;69232;47.488;19.268;2023-12-20T09:11:57;65.10;;;16.45;;
79747;SDS011;69232;47.488;19.268;2023-12-20T09:14:22;41.10;;;14.50;;
79747;SDS011;69232;47.488;19.268;2023-12-20T09:16:48;23.10;;;9.38;;
79747;SDS011;69232;47.488;19.268;2023-12-20T09:19:15;14.60;;;7.20;;
79747;SDS011;69232;47.488;19.268;2023-12-20T09:21:41;26.48;;;11.23;;
79747;SDS011;69232;47.488;19.268;2023-12-20T09:24:06;27.38;;;7.05;;
79747;SDS011;69232;47.488;19.268;2023-12-20T09:26:31;36.53;;;14.85;;
79747;SDS011;69232;47.488;19.268;2023-12-20T09:28:57;38.78;;;12.18;;
79747;SDS011;69232;47.488;19.268;2023-12-20T09:31:22;45.53;;;12.15;;
79747;SDS011;69232;47.488;19.268;2023-12-20T09:33:48;44.70;;;14.60;;
79747;SDS011;69232;47.488;19.268;2023-12-20T09:36:13;48.10;;;14.82;;
79747;SDS011;69232;47.488;19.268;2023-12-20T09:38:39;31.65;;;14.35;;
79747;SDS011;69232;47.488;19.268;2023-12-20T09:41:04;42.42;;;15.85;;
79747;SDS011;69232;47.488;19.268;2023-12-20T09:43:30;42.55;;;15.45;;
79747;SDS011;69232;47.488;19.268;2023-12-20T09:45:56;42.78;;;16.13;;
79747;SDS011;69232;47.488;19.268;2023-12-20T09:48:24;45.17;;;14.50;;
79747;SDS011;69232;47.488;19.268;2023-12-20T09:50:50;37.35;;;15.13;;
79747;SDS011;69232;47.488;19.268;2023-12-20T09:53:16;41.83;;;15.05;;
79747;SDS011;69232;47.488;19.268;2023-12-20T09:55:42;42.25;;;15.13;;
79747;SDS011;69232;47.488;19.268;2023-12-20T09:58:08;52.03;;;15.80;;
79747;SDS011;69232;47.488;19.268;2023-12-20T10:00:37;42.33;;;13.52;;
79747;SDS011;69232;47.488;19.268;2023-12-20T10:03:02;39.67;;;14.82;;
79747;SDS011;69232;47.488;19.268;2023-12-20T10:05:29;42.22;;;15.82;;
79747;SDS011;69232;47.488;19.268;2023-12-20T10:07:56;40.20;;;13.38;;
79747;SDS011;69232;47.488;19.268;2023-12-20T10:10:22;43.58;;;13.98;;
79747;SDS011;69232;47.488;19.268;2023-12-20T10:15:36;42.65;;;16.10;;
79747;SDS011;69232;47.488;19.268;2023-12-20T10:18:02;35.47;;;13.02;;
79747;SDS011;69232;47.488;19.268;2023-12-20T10:20:28;51.88;;;16.75;;
79747;SDS011;69232;47.488;19.268;2023-12-20T10:22:57;55.83;;;15.63;;
79747;SDS011;69232;47.488;19.268;2023-12-20T10:25:23;46.78;;;20.65;;
79747;SDS011;69232;47.488;19.268;2023-12-20T10:27:49;42.35;;;16.00;;
79747;SDS011;69232;47.488;19.268;2023-12-20T10:30:15;37.67;;;16.83;;
79747;SDS011;69232;47.488;19.268;2023-12-20T10:32:40;44.83;;;15.82;;
79747;SDS011;69232;47.488;19.268;2023-12-20T10:35:06;54.67;;;18.98;;
79747;SDS011;69232;47.488;19.268;2023-12-20T10:37:35;44.08;;;17.50;;
79747;SDS011;69232;47.488;19.268;2023-12-20T10:40:03;51.25;;;18.17;;
79747;SDS011;69232;47.488;19.268;2023-12-20T10:42:29;43.13;;;17.98;;
79747;SDS011;69232;47.488;19.268;2023-12-20T10:44:54;44.53;;;17.02;;
79747;SDS011;69232;47.488;19.268;2023-12-20T10:47:20;39.78;;;15.27;;
79747;SDS011;69232;47.488;19.268;2023-12-20T10:49:45;53.97;;;17.83;;
79747;SDS011;69232;47.488;19.268;2023-12-20T10:52:11;52.15;;;17.77;;
79747;SDS011;69232;47.488;19.268;2023-12-20T10:54:38;49.42;;;16.92;;
79747;SDS011;69232;47.488;19.268;2023-12-20T10:57:05;42.53;;;16.73;;
79747;SDS011;69232;47.488;19.268;2023-12-20T10:59:30;45.92;;;16.50;;
79747;SDS011;69232;47.488;19.268;2023-12-20T11:02:02;52.00;;;18.75;;
79747;SDS011;69232;47.488;19.268;2023-12-20T11:04:53;36.40;;;15.38;;
79747;SDS011;69232;47.488;19.268;2023-12-20T11:07:33;51.85;;;20.42;;
79747;SDS011;69232;47.488;19.268;2023-12-20T11:12:41;47.17;;;20.73;;
79747;SDS011;69232;47.488;19.268;2023-12-20T11:15:08;46.92;;;18.65;;
79747;SDS011;69232;47.488;19.268;2023-12-20T11:17:34;48.00;;;17.55;;
79747;SDS011;69232;47.488;19.268;2023-12-20T11:22:26;44.75;;;18.92;;
79747;SDS011;69232;47.488;19.268;2023-12-20T11:24:54;55.13;;;19.65;;
79747;SDS011;69232;47.488;19.268;2023-12-20T11:27:24;39.67;;;17.27;;
79747;SDS011;69232;47.488;19.268;2023-12-20T11:29:53;36.97;;;17.48;;
79747;SDS011;69232;47.488;19.268;2023-12-20T11:34:53;50.58;;;17.95;;
79747;SDS011;69232;47.488;19.268;2023-12-20T11:37:20;43.22;;;18.88;;
79747;SDS011;69232;47.488;19.268;2023-12-20T11:39:45;53.10;;;20.65;;
79747;SDS011;69232;47.488;19.268;2023-12-20T11:42:19;57.58;;;18.85;;
79747;SDS011;69232;47.488;19.268;2023-12-20T11:44:45;72.53;;;24.20;;
79747;SDS011;69232;47.488;19.268;2023-12-20T11:47:10;57.05;;;22.65;;
79747;SDS011;69232;47.488;19.268;2023-12-20T11:49:37;71.75;;;21.77;;
79747;SDS011;69232;47.488;19.268;2023-12-20T11:52:02;60.17;;;22.77;;
79747;SDS011;69232;47.488;19.268;2023-12-20T11:54:29;72.13;;;24.75;;
79747;SDS011;69232;47.488;19.268;2023-12-20T11:56:55;63.13;;;22.50;;
79747;SDS011;69232;47.488;19.268;2023-12-20T11:59:20;67.57;;;23.60;;
79747;SDS011;69232;47.488;19.268;2023-12-20T12:01:49;67.53;;;24.65;;
79747;SDS011;69232;47.488;19.268;2023-12-20T12:04:20;73.28;;;24.58;;
79747;SDS011;69232;47.488;19.268;2023-12-20T12:06:45;61.15;;;23.13;;
79747;SDS011;69232;47.488;19.268;2023-12-20T12:09:11;69.25;;;24.83;;
79747;SDS011;69232;47.488;19.268;2023-12-20T12:11:36;68.82;;;25.95;;
79747;SDS011;69232;47.488;19.268;2023-12-20T12:14:02;72.00;;;22.70;;
79747;SDS011;69232;47.488;19.268;2023-12-20T12:16:27;57.92;;;21.63;;
79747;SDS011;69232;47.488;19.268;2023-12-20T12:18:56;64.57;;;23.80;;
79747;SDS011;69232;47.488;19.268;2023-12-20T12:21:22;69.05;;;24.05;;
79747;SDS011;69232;47.488;19.268;2023-12-20T12:23:47;72.47;;;24.90;;
79747;SDS011;69232;47.488;19.268;2023-12-20T12:26:13;63.25;;;22.13;;
79747;SDS011;69232;47.488;19.268;2023-12-20T12:28:41;66.90;;;25.30;;
79747;SDS011;69232;47.488;19.268;2023-12-20T12:31:08;70.30;;;23.15;;
79747;SDS011;69232;47.488;19.268;2023-12-20T12:33:34;69.72;;;23.30;;
79747;SDS011;69232;47.488;19.268;2023-12-20T12:36:02;55.85;;;22.33;;
79747;SDS011;69232;47.488;19.268;2023-12-20T12:38:30;63.78;;;23.77;;
79747;SDS011;69232;47.488;19.268;2023-12-20T12:40:55;67.20;;;23.98;;
79747;SDS011;69232;47.488;19.268;2023-12-20T12:43:21;57.75;;;21.70;;
79747;SDS011;69232;47.488;19.268;2023-12-20T12:45:47;70.65;;;25.65;;
79747;SDS011;69232;47.488;19.268;2023-12-20T12:48:13;66.20;;;26.10;;
79747;SDS011;69232;47.488;19.268;2023-12-20T12:50:39;62.83;;;25.30;;
79747;SDS011;69232;47.488;19.268;2023-12-20T12:53:04;64.45;;;24.63;;
79747;SDS011;69232;47.488;19.268;2023-12-20T12:55:30;63.92;;;23.90;;
79747;SDS011;69232;47.488;19.268;2023-12-20T12:57:55;69.00;;;25.52;;
79747;SDS011;69232;47.488;19.268;2023-12-20T13:00:21;58.25;;;23.08;;
79747;SDS011;69232;47.488;19.268;2023-12-20T13:02:46;77.70;;;22.98;;
79747;SDS011;69232;47.488;19.268;2023-12-20T13:05:12;56.80;;;21.30;;
79747;SDS011;69232;47.488;19.268;2023-12-20T13:07:37;66.03;;;22.65;;
79747;SDS011;69232;47.488;19.268;2023-12-20T13:10:04;65.22;;;23.27;;
79747;SDS011;69232;47.488;19.268;2023-12-20T13:12:30;65.65;;;22.35;;
79747;SDS011;69232;47.488;19.268;2023-12-20T13:14:57;65.32;;;21.98;;
79747;SDS011;69232;47.488;19.268;2023-12-20T13:17:22;71.70;;;24.05;;
79747;SDS011;69232;47.488;19.268;2023-12-20T13:19:47;61.58;;;22.55;;
79747;SDS011;69232;47.488;19.268;2023-12-20T13:22:14;65.40;;;23.83;;
79747;SDS011;69232;47.488;19.268;2023-12-20T13:24:40;68.88;;;27.75;;
79747;SDS011;69232;47.488;19.268;2023-12-20T13:27:05;67.05;;;31.73;;
79747;SDS011;69232;47.488;19.268;2023-12-20T13:29:30;68.78;;;26.02;;
79747;SDS011;69232;47.488;19.268;2023-12-20T13:31:56;71.97;;;26.00;;
79747;SDS011;69232;47.488;19.268;2023-12-20T13:34:22;65.72;;;24.95;;
79747;SDS011;69232;47.488;19.268;2023-12-20T13:36:48;66.05;;;24.10;;
79747;SDS011;69232;47.488;19.268;2023-12-20T13:39:15;59.17;;;22.30;;
79747;SDS011;69232;47.488;19.268;2023-12-20T13:41:41;69.32;;;25.58;;
79747;SDS011;69232;47.488;19.268;2023-12-20T13:44:07;61.45;;;25.13;;
79747;SDS011;69232;47.488;19.268;2023-12-20T13:46:32;47.70;;;18.50;;
79747;SDS011;69232;47.488;19.268;2023-12-20T13:48:57;16.65;;;6.97;;
79747;SDS011;69232;47.488;19.268;2023-12-20T13:51:23;11.35;;;5.32;;
79747;SDS011;69232;47.488;19.268;2023-12-20T13:53:48;14.50;;;6.35;;
79747;SDS011;69232;47.488;19.268;2023-12-20T13:56:17;9.32;;;5.30;;
79747;SDS011;69232;47.488;19.268;2023-12-20T13:58:43;10.02;;;5.13;;
79747;SDS011;69232;47.488;19.268;2023-12-20T14:01:09;5.90;;;3.80;;
79747;SDS011;69232;47.488;19.268;2023-12-20T14:03:35;6.18;;;3.67;;
79747;SDS011;69232;47.488;19.268;2023-12-20T14:06:00;11.23;;;5.45;;
79747;SDS011;69232;47.488;19.268;2023-12-20T14:08:26;14.07;;;5.88;;
79747;SDS011;69232;47.488;19.268;2023-12-20T14:10:52;14.82;;;7.10;;